createdAt,value
2022-12-26T00:01:02.139Z,44.00
2022-12-26T00:03:30.615Z,44.43
2022-12-26T00:05:58.629Z,51.73
2022-12-26T00:08:28.123Z,51.60
2022-12-26T00:10:56.099Z,57.90
2022-12-26T00:13:39.195Z,55.37
2022-12-26T00:16:10.080Z,51.13
2022-12-26T00:18:38.735Z,48.53
2022-12-26T00:21:07.043Z,49.70
2022-12-26T00:23:37.063Z,49.27
2022-12-26T00:26:05.979Z,53.47
2022-12-26T00:28:34.107Z,53.40
2022-12-26T00:31:07.174Z,49.60
2022-12-26T00:33:36.122Z,48.70
2022-12-26T00:36:05.009Z,50.50
2022-12-26T00:38:33.339Z,54.27
2022-12-26T00:41:02.824Z,49.97
2022-12-26T00:43:30.802Z,52.47
2022-12-26T00:45:58.734Z,53.83
2022-12-26T00:48:26.573Z,50.83
2022-12-26T00:50:54.654Z,52.03
2022-12-26T00:53:23.353Z,56.30
2022-12-26T00:55:51.462Z,53.97
2022-12-26T00:58:21.941Z,50.73
2022-12-26T01:00:50.387Z,49.20
2022-12-26T01:03:18.377Z,53.27
2022-12-26T01:05:49.080Z,49.80
2022-12-26T01:08:23.347Z,50.13
2022-12-26T01:10:52.931Z,50.07
2022-12-26T01:13:22.495Z,51.30
2022-12-26T01:15:51.847Z,53.67
2022-12-26T01:18:20.047Z,53.13
2022-12-26T01:20:48.881Z,53.87
2022-12-26T01:23:18.024Z,56.77
2022-12-26T01:26:15.559Z,58.37
2022-12-26T01:28:35.491Z,54.33
2022-12-26T01:31:04.097Z,51.77
2022-12-26T01:33:32.156Z,54.17
2022-12-26T01:36:00.370Z,51.37
2022-12-26T01:38:28.802Z,48.03
2022-12-26T01:41:10.552Z,39.67
2022-12-26T01:43:56.093Z,51.53
2022-12-26T01:46:28.564Z,39.53
2022-12-26T01:48:59.638Z,42.53
2022-12-26T01:51:31.217Z,39.17
2022-12-26T01:54:41.456Z,32.27
2022-12-26T01:56:53.022Z,32.10
2022-12-26T01:59:24.616Z,26.90
2022-12-26T02:01:55.256Z,26.50
2022-12-26T02:04:44.996Z,26.77
2022-12-26T02:07:13.285Z,24.87
2022-12-26T02:09:41.703Z,27.07
2022-12-26T02:12:35.369Z,27.37
2022-12-26T02:15:08.234Z,28.97
2022-12-26T02:17:36.140Z,32.87
2022-12-26T02:20:19.113Z,28.67
2022-12-26T02:23:20.520Z,30.33
2022-12-26T02:26:33.189Z,28.77
2022-12-26T02:29:41.939Z,41.77
2022-12-26T02:32:18.754Z,38.03
2022-12-26T02:34:56.884Z,44.17
2022-12-26T02:37:37.513Z,49.20
2022-12-26T02:40:20.474Z,43.07
2022-12-26T02:42:57.009Z,42.40
2022-12-26T02:45:52.704Z,43.93
2022-12-26T02:48:32.491Z,43.50
2022-12-26T02:51:29.474Z,44.23
2022-12-26T02:54:24.588Z,42.77
2022-12-26T02:57:14.050Z,36.67
2022-12-26T03:00:08.080Z,40.30
2022-12-26T03:02:59.253Z,60.13
2022-12-26T03:05:51.818Z,50.00
2022-12-26T03:08:44.341Z,50.77
2022-12-26T03:11:29.410Z,52.30
2022-12-26T03:14:04.164Z,60.60
2022-12-26T03:16:49.628Z,60.63
2022-12-26T03:19:18.030Z,58.10
2022-12-26T03:21:48.921Z,55.27
2022-12-26T03:24:18.563Z,90.97
2022-12-26T03:26:50.210Z,78.53
2022-12-26T03:29:37.642Z,74.10
2022-12-26T03:32:08.092Z,92.37
2022-12-26T03:34:41.885Z,90.40
2022-12-26T03:37:48.478Z,103.27
2022-12-26T03:40:44.407Z,85.80
2022-12-26T03:43:39.399Z,67.10
2022-12-26T03:46:35.840Z,65.63
2022-12-26T03:49:27.062Z,62.17
2022-12-26T03:52:18.067Z,61.93
2022-12-26T03:55:12.256Z,69.67
2022-12-26T03:58:02.188Z,67.40
2022-12-26T04:00:49.597Z,73.77
2022-12-26T04:03:38.632Z,65.70
2022-12-26T04:06:27.788Z,63.70
2022-12-26T04:09:18.298Z,61.27
2022-12-26T04:12:05.277Z,46.20
2022-12-26T04:14:59.128Z,56.30
2022-12-26T04:17:57.552Z,44.27
2022-12-26T04:20:31.179Z,40.30
2022-12-26T04:23:23.736Z,41.37
2022-12-26T04:26:17.862Z,41.87
2022-12-26T04:29:04.750Z,37.37
2022-12-26T04:31:55.023Z,38.33
2022-12-26T04:34:48.502Z,59.40
2022-12-26T04:37:40.913Z,52.73
2022-12-26T04:40:31.033Z,52.13
2022-12-26T04:43:48.491Z,55.20
2022-12-26T04:46:07.651Z,55.90
2022-12-26T04:49:01.150Z,54.77
2022-12-26T04:51:29.010Z,51.97
2022-12-26T04:53:56.904Z,49.63
2022-12-26T04:56:24.876Z,50.17
2022-12-26T04:58:52.719Z,49.33
2022-12-26T05:01:39.650Z,46.20
2022-12-26T05:04:36.253Z,47.50
2022-12-26T05:07:24.155Z,49.10
2022-12-26T05:09:54.593Z,49.50
2022-12-26T05:12:22.664Z,49.27
2022-12-26T05:14:50.509Z,44.47
2022-12-26T05:17:37.311Z,44.87
2022-12-26T05:20:23.408Z,43.83
2022-12-26T05:23:16.033Z,47.67
2022-12-26T05:26:03.470Z,41.53
2022-12-26T05:28:43.387Z,44.00
2022-12-26T05:31:12.640Z,48.67
2022-12-26T05:33:59.788Z,45.17
2022-12-26T05:36:32.543Z,45.83
2022-12-26T05:39:00.706Z,48.03
2022-12-26T05:41:29.066Z,45.07
2022-12-26T05:43:56.942Z,43.23
2022-12-26T05:46:24.902Z,47.13
2022-12-26T05:48:54.187Z,45.03
2022-12-26T05:51:22.261Z,48.37
2022-12-26T05:53:50.569Z,44.40
2022-12-26T05:56:19.276Z,45.23
2022-12-26T05:58:47.453Z,44.77
2022-12-26T06:01:17.795Z,46.27
2022-12-26T06:03:48.837Z,44.03
2022-12-26T06:06:19.299Z,41.37
2022-12-26T06:08:49.324Z,41.60
2022-12-26T06:11:18.526Z,42.60
2022-12-26T06:13:46.746Z,42.23
2022-12-26T06:16:17.663Z,39.93
2022-12-26T06:18:45.901Z,39.53
2022-12-26T06:21:15.602Z,39.43
2022-12-26T06:23:44.899Z,36.20
2022-12-26T06:26:13.648Z,37.20
2022-12-26T06:28:42.829Z,39.10
2022-12-26T06:31:14.516Z,35.30
2022-12-26T06:33:43.077Z,36.80
2022-12-26T06:36:12.902Z,35.37
2022-12-26T06:38:41.177Z,38.03
2022-12-26T06:41:12.448Z,36.97
2022-12-26T06:43:40.431Z,36.47
2022-12-26T06:46:09.465Z,41.43
2022-12-26T06:48:39.606Z,39.30
2022-12-26T06:51:10.571Z,37.67
2022-12-26T06:53:38.734Z,37.17
2022-12-26T06:56:07.861Z,38.90
2022-12-26T06:58:37.483Z,38.43
2022-12-26T07:01:06.520Z,39.60
2022-12-26T07:03:34.561Z,42.60
2022-12-26T07:06:05.250Z,39.37
2022-12-26T07:08:33.652Z,46.37
2022-12-26T07:11:02.022Z,43.13
2022-12-26T07:13:29.984Z,44.33
2022-12-26T07:16:01.479Z,39.00
2022-12-26T07:18:29.384Z,50.60
2022-12-26T07:20:57.267Z,51.63
2022-12-26T07:23:25.220Z,65.97
2022-12-26T07:25:53.149Z,71.53
2022-12-26T07:28:21.067Z,68.37
2022-12-26T07:30:49.487Z,66.50
2022-12-26T07:33:18.984Z,62.07
2022-12-26T07:35:46.838Z,69.50
2022-12-26T07:38:14.911Z,68.17
2022-12-26T07:40:42.853Z,68.10
2022-12-26T07:43:10.869Z,73.97
2022-12-26T07:45:43.484Z,67.70
2022-12-26T07:48:13.646Z,71.83
2022-12-26T07:50:47.080Z,67.83
2022-12-26T07:53:15.407Z,64.20
2022-12-26T07:55:43.345Z,62.50
2022-12-26T07:58:11.457Z,61.40
2022-12-26T08:00:39.332Z,61.07
2022-12-26T08:03:08.400Z,58.47
2022-12-26T08:05:39.337Z,59.13
2022-12-26T08:08:08.577Z,54.63
2022-12-26T08:10:37.974Z,52.37
2022-12-26T08:13:05.923Z,48.30
2022-12-26T08:15:33.936Z,43.93
2022-12-26T08:18:01.845Z,40.47
2022-12-26T08:20:29.776Z,38.13
2022-12-26T08:25:31.806Z,41.17
2022-12-26T08:28:00.299Z,43.40
2022-12-26T08:30:28.204Z,36.80
2022-12-26T08:32:56.101Z,34.93
2022-12-26T08:35:24.464Z,27.73
2022-12-26T08:37:52.417Z,27.70
2022-12-26T08:40:41.451Z,27.00
2022-12-26T08:43:31.022Z,25.47
2022-12-26T08:46:02.078Z,27.03
2022-12-26T08:48:30.499Z,26.57
2022-12-26T08:51:01.766Z,27.80
2022-12-26T08:53:32.907Z,26.93
2022-12-26T08:56:00.966Z,27.40
2022-12-26T08:58:30.408Z,28.47
2022-12-26T09:01:07.548Z,28.07
2022-12-26T09:03:35.835Z,27.33
2022-12-26T09:06:06.443Z,28.37
2022-12-26T09:08:35.716Z,28.70
2022-12-26T09:11:05.165Z,30.53
2022-12-26T09:13:35.701Z,30.73
2022-12-26T09:16:09.418Z,31.00
2022-12-26T09:18:37.624Z,30.63
2022-12-26T09:21:08.422Z,30.60
2022-12-26T09:23:37.168Z,27.73
2022-12-26T09:26:07.478Z,27.67
2022-12-26T09:28:37.557Z,26.40
2022-12-26T09:31:07.297Z,24.83
2022-12-26T09:33:37.612Z,23.57
2022-12-26T09:36:14.056Z,25.17
2022-12-26T09:38:42.858Z,24.93
2022-12-26T09:41:29.659Z,25.10
2022-12-26T09:44:07.187Z,26.73
2022-12-26T09:46:42.822Z,23.83
2022-12-26T09:49:14.341Z,25.73
2022-12-26T09:51:45.795Z,24.33
2022-12-26T09:54:19.128Z,23.87
2022-12-26T09:57:05.296Z,25.67
2022-12-26T09:59:47.271Z,26.07
2022-12-26T10:02:19.776Z,25.97
2022-12-26T10:04:47.984Z,26.37
2022-12-26T10:07:22.498Z,28.60
2022-12-26T10:10:03.951Z,29.37
2022-12-26T10:12:40.073Z,28.03
2022-12-26T10:15:32.636Z,28.57
2022-12-26T10:18:12.665Z,28.53
2022-12-26T10:20:53.084Z,29.73
2022-12-26T10:23:32.327Z,29.73
2022-12-26T10:26:07.019Z,26.43
2022-12-26T10:28:40.323Z,25.53
2022-12-26T10:31:16.861Z,28.47
2022-12-26T10:33:48.793Z,25.97
2022-12-26T10:36:23.098Z,23.63
2022-12-26T10:38:54.121Z,25.38
2022-12-26T10:41:28.956Z,30.75
2022-12-26T10:43:56.922Z,25.58
2022-12-26T10:46:40.611Z,21.45
2022-12-26T10:49:12.230Z,16.63
2022-12-26T10:51:40.456Z,17.98
2022-12-26T10:54:16.772Z,20.30
2022-12-26T10:56:46.378Z,19.00
2022-12-26T10:59:18.325Z,21.77
2022-12-26T11:01:50.994Z,19.50
2022-12-26T11:04:44.471Z,20.00
2022-12-26T11:07:12.298Z,20.23
2022-12-26T11:09:44.018Z,20.73
2022-12-26T11:12:22.155Z,23.58
2022-12-26T11:14:50.974Z,19.63
2022-12-26T11:17:29.290Z,20.15
2022-12-26T11:20:27.750Z,19.45
2022-12-26T11:22:56.017Z,19.40
2022-12-26T11:25:27.601Z,18.35
2022-12-26T11:27:57.480Z,18.40
2022-12-26T11:30:29.164Z,20.95
2022-12-26T11:33:24.065Z,16.45
2022-12-26T11:35:55.908Z,21.17
2022-12-26T11:38:44.204Z,18.52
2022-12-26T11:41:36.799Z,21.08
2022-12-26T11:44:22.623Z,17.92
2022-12-26T11:46:55.659Z,18.00
2022-12-26T11:49:31.138Z,15.63
2022-12-26T11:52:00.683Z,15.23
2022-12-26T11:54:32.281Z,17.73
2022-12-26T11:57:03.719Z,19.42
2022-12-26T11:59:31.649Z,19.85
2022-12-26T12:02:22.221Z,19.33
2022-12-26T12:04:55.993Z,20.23
2022-12-26T12:07:48.694Z,20.27
2022-12-26T12:10:47.829Z,19.80
2022-12-26T12:13:46.123Z,19.13
2022-12-26T12:16:32.778Z,18.80
2022-12-26T12:19:15.676Z,20.08
2022-12-26T12:21:46.654Z,18.17
2022-12-26T12:24:38.534Z,17.88
2022-12-26T12:27:13.245Z,16.73
2022-12-26T12:30:02.732Z,20.77
2022-12-26T12:32:41.079Z,15.23
2022-12-26T12:35:25.695Z,14.60
2022-12-26T12:38:17.450Z,14.52
2022-12-26T12:41:00.194Z,15.35
2022-12-26T12:43:33.511Z,16.35
2022-12-26T12:46:10.345Z,18.30
2022-12-26T12:48:51.109Z,15.80
2022-12-26T12:51:29.059Z,14.95
2022-12-26T12:54:16.580Z,18.00
2022-12-26T12:56:52.500Z,16.77
2022-12-26T12:59:33.517Z,18.20
2022-12-26T13:02:10.278Z,16.47
2022-12-26T13:04:44.342Z,17.93
2022-12-26T13:07:17.799Z,18.63
2022-12-26T13:09:51.210Z,19.63
2022-12-26T13:12:23.267Z,16.27
2022-12-26T13:14:56.718Z,17.67
2022-12-26T13:17:32.646Z,16.43
2022-12-26T13:20:04.545Z,17.13
2022-12-26T13:22:52.930Z,15.77
2022-12-26T13:25:25.830Z,13.13
2022-12-26T13:28:09.435Z,10.70
2022-12-26T13:30:38.652Z,12.43
2022-12-26T13:33:07.177Z,12.13
2022-12-26T13:35:56.844Z,12.63
2022-12-26T13:38:26.379Z,14.00
2022-12-26T13:41:21.912Z,9.77
2022-12-26T13:44:03.005Z,11.40
2022-12-26T13:46:38.617Z,11.03
2022-12-26T13:49:07.775Z,9.47
2022-12-26T13:52:00.590Z,14.77
2022-12-26T13:54:30.164Z,14.83
2022-12-26T13:57:41.187Z,9.87
2022-12-26T14:00:18.125Z,13.33
2022-12-26T14:03:24.013Z,13.97
2022-12-26T14:06:19.788Z,10.93
2022-12-26T14:09:07.104Z,11.87
2022-12-26T14:11:48.163Z,12.33
2022-12-26T14:14:27.723Z,11.37
2022-12-26T14:17:03.268Z,12.80
2022-12-26T14:19:43.974Z,15.23
2022-12-26T14:22:18.438Z,12.97
2022-12-26T14:25:05.761Z,21.83
2022-12-26T14:27:43.482Z,25.33
2022-12-26T14:30:25.490Z,21.03
2022-12-26T14:33:10.307Z,21.40
2022-12-26T14:35:46.049Z,20.63
2022-12-26T14:38:26.106Z,19.47
2022-12-26T14:41:06.933Z,19.47
2022-12-26T14:43:36.736Z,27.13
2022-12-26T14:46:29.031Z,21.20
2022-12-26T14:49:00.011Z,20.53
2022-12-26T14:51:36.925Z,26.07
2022-12-26T14:54:50.801Z,26.20
2022-12-26T14:57:46.198Z,36.33
2022-12-26T15:00:32.602Z,35.73
2022-12-26T15:03:45.976Z,31.90
2022-12-26T15:07:01.281Z,28.23
2022-12-26T15:10:13.749Z,22.83
2022-12-26T15:13:28.765Z,25.77
2022-12-26T15:16:11.513Z,19.37
2022-12-26T15:19:07.864Z,22.33
2022-12-26T15:22:13.778Z,21.93
2022-12-26T15:25:19.290Z,20.43
2022-12-26T15:28:18.170Z,34.17
2022-12-26T15:31:08.573Z,65.33
2022-12-26T15:33:41.814Z,82.43
2022-12-26T15:36:24.263Z,183.17
2022-12-26T15:38:59.576Z,129.13
2022-12-26T15:41:36.995Z,119.63
2022-12-26T15:44:17.778Z,107.10
2022-12-26T15:46:54.525Z,109.03
2022-12-26T15:49:33.730Z,123.63
2022-12-26T15:52:11.872Z,111.40
2022-12-26T15:55:07.842Z,100.67
2022-12-26T15:57:46.996Z,111.17
2022-12-26T16:00:18.848Z,100.20
2022-12-26T16:02:51.124Z,89.50
2022-12-26T16:05:44.182Z,90.57
2022-12-26T16:08:37.352Z,79.13
2022-12-26T16:11:31.745Z,84.77
2022-12-26T16:14:01.640Z,85.40
2022-12-26T16:16:35.235Z,62.37
2022-12-26T16:19:17.265Z,78.40
2022-12-26T16:22:06.281Z,64.50
2022-12-26T16:24:38.306Z,67.10
2022-12-26T16:27:09.142Z,70.23
2022-12-26T16:29:46.770Z,59.77
2022-12-26T16:32:19.134Z,66.77
2022-12-26T16:34:48.172Z,74.67
2022-12-26T16:37:20.217Z,61.40
2022-12-26T16:40:09.459Z,71.50
2022-12-26T16:42:37.351Z,69.10
2022-12-26T16:45:07.527Z,66.07
2022-12-26T16:47:36.454Z,65.97
2022-12-26T16:50:05.746Z,77.67
2022-12-26T16:52:43.956Z,71.13
2022-12-26T16:55:37.725Z,76.13
2022-12-26T16:58:15.270Z,73.67
2022-12-26T17:01:01.156Z,69.90
2022-12-26T17:03:37.629Z,80.33
2022-12-26T17:06:12.777Z,68.67
2022-12-26T17:08:46.167Z,64.67
2022-12-26T17:11:15.807Z,61.97
2022-12-26T17:13:52.775Z,52.17
2022-12-26T17:16:24.736Z,53.80
2022-12-26T17:18:54.056Z,51.53
2022-12-26T17:21:29.939Z,41.40
2022-12-26T17:24:06.929Z,34.27
2022-12-26T17:26:38.141Z,43.37
2022-12-26T17:29:06.285Z,47.33
2022-12-26T17:31:37.058Z,49.33
2022-12-26T17:34:09.395Z,43.53
2022-12-26T17:39:27.829Z,58.07
2022-12-26T17:41:59.186Z,57.57
2022-12-26T17:44:38.837Z,63.47
2022-12-26T17:47:20.670Z,71.03
2022-12-26T17:49:49.314Z,55.03
2022-12-26T17:52:20.698Z,49.13
2022-12-26T17:54:50.283Z,46.33
2022-12-26T17:57:22.929Z,49.63
2022-12-26T17:59:52.110Z,52.67
2022-12-26T18:02:21.608Z,47.83
2022-12-26T18:04:50.249Z,45.83
2022-12-26T18:07:24.314Z,41.87
2022-12-26T18:09:56.759Z,43.87
2022-12-26T18:12:25.980Z,62.77
2022-12-26T18:15:01.090Z,104.33
2022-12-26T18:17:32.859Z,92.60
2022-12-26T18:20:00.759Z,94.97
2022-12-26T18:22:28.906Z,77.57
2022-12-26T18:24:56.998Z,89.10
2022-12-26T18:27:30.273Z,77.40
2022-12-26T18:29:58.407Z,84.93
2022-12-26T18:32:27.724Z,93.27
2022-12-26T18:34:55.627Z,144.10
2022-12-26T18:37:35.815Z,198.67
2022-12-26T18:40:03.786Z,188.03
2022-12-26T18:42:33.077Z,270.77
2022-12-26T18:45:00.984Z,142.87
2022-12-26T18:47:30.028Z,121.23
2022-12-26T18:49:57.904Z,113.87
2022-12-26T18:52:25.807Z,105.03
2022-12-26T18:54:53.701Z,105.70
2022-12-26T18:57:21.811Z,107.13
2022-12-26T18:59:51.097Z,104.33
2022-12-26T19:02:20.354Z,100.67
2022-12-26T19:04:49.342Z,97.27
2022-12-26T19:07:18.235Z,134.70
2022-12-26T19:09:46.442Z,130.73
2022-12-26T19:12:14.495Z,146.17
2022-12-26T19:14:42.991Z,157.60
2022-12-26T19:17:12.364Z,141.40
2022-12-26T19:19:40.494Z,127.37
2022-12-26T19:22:08.910Z,120.37
2022-12-26T19:24:36.985Z,110.80
2022-12-26T19:27:05.354Z,114.63
2022-12-26T19:29:33.188Z,111.10
2022-12-26T19:32:01.160Z,106.07
2022-12-26T19:34:30.656Z,117.80
2022-12-26T19:36:58.517Z,116.17
2022-12-26T19:39:26.371Z,123.20
2022-12-26T19:41:54.319Z,120.00
2022-12-26T19:44:22.401Z,120.10
2022-12-26T19:46:50.344Z,134.53
2022-12-26T19:49:39.561Z,125.87
2022-12-26T19:52:07.707Z,115.77
2022-12-26T19:54:35.584Z,104.13
2022-12-26T19:57:03.486Z,120.67
2022-12-26T19:59:31.393Z,137.37
2022-12-26T20:01:59.478Z,152.70
2022-12-26T20:04:27.477Z,211.50
2022-12-26T20:06:59.816Z,291.03
2022-12-26T20:09:28.407Z,235.73
2022-12-26T20:11:57.174Z,218.90
2022-12-26T20:14:27.601Z,159.57
2022-12-26T20:17:06.117Z,153.37
2022-12-26T20:19:36.450Z,174.03
2022-12-26T20:22:06.718Z,150.60
2022-12-26T20:24:35.103Z,142.13
2022-12-26T20:27:03.537Z,145.13
2022-12-26T20:29:31.648Z,142.77
2022-12-26T20:31:59.867Z,128.20
2022-12-26T20:34:27.903Z,108.57
2022-12-26T20:36:55.795Z,122.33
2022-12-26T20:39:26.028Z,128.07
2022-12-26T20:41:54.390Z,101.83
2022-12-26T20:44:22.386Z,95.47
2022-12-26T20:46:50.259Z,84.20
2022-12-26T20:49:18.583Z,106.37
2022-12-26T20:51:46.892Z,82.80
2022-12-26T20:54:16.688Z,91.43
2022-12-26T20:56:47.238Z,115.40
2022-12-26T20:59:15.164Z,125.97
2022-12-26T21:01:43.464Z,133.07
2022-12-26T21:04:18.621Z,129.13
2022-12-26T21:06:47.576Z,129.03
2022-12-26T21:09:15.823Z,126.70
2022-12-26T21:11:45.438Z,121.50
2022-12-26T21:14:17.031Z,123.07
2022-12-26T21:16:46.984Z,147.57
2022-12-26T21:19:16.160Z,147.53
2022-12-26T21:21:45.736Z,173.97
2022-12-26T21:24:15.989Z,171.90
2022-12-26T21:26:44.168Z,178.10
2022-12-26T21:29:15.173Z,180.00
2022-12-26T21:31:43.204Z,178.47
2022-12-26T21:34:15.256Z,175.77
2022-12-26T21:37:04.250Z,159.20
2022-12-26T21:39:33.147Z,153.90
2022-12-26T21:42:02.163Z,154.43
2022-12-26T21:44:31.441Z,171.00
2022-12-26T21:46:59.357Z,159.63
2022-12-26T21:49:27.393Z,163.83
2022-12-26T21:51:55.315Z,156.13
2022-12-26T21:54:46.676Z,163.70
2022-12-26T21:57:17.100Z,174.33
2022-12-26T21:59:59.357Z,169.43
2022-12-26T22:02:48.365Z,214.27
2022-12-26T22:05:17.257Z,249.10
2022-12-26T22:07:45.537Z,240.97
2022-12-26T22:10:34.771Z,221.57
2022-12-26T22:13:02.827Z,229.53
2022-12-26T22:16:04.313Z,249.37
2022-12-26T22:18:33.738Z,256.37
2022-12-26T22:21:06.916Z,235.53
2022-12-26T22:23:35.220Z,233.03
2022-12-26T22:26:03.193Z,221.43
2022-12-26T22:28:31.525Z,229.90
2022-12-26T22:31:01.768Z,238.77
2022-12-26T22:33:30.609Z,244.07
2022-12-26T22:36:05.626Z,236.13
2022-12-26T22:38:33.558Z,235.60
2022-12-26T22:41:01.947Z,251.87
2022-12-26T22:43:30.657Z,266.97
2022-12-26T22:46:00.271Z,258.30
2022-12-26T22:48:28.412Z,217.90
2022-12-26T22:50:56.951Z,217.70
2022-12-26T22:53:25.926Z,209.53
2022-12-26T22:55:58.579Z,240.50
2022-12-26T22:58:26.723Z,236.37
2022-12-26T23:00:54.578Z,245.17
2022-12-26T23:03:24.242Z,205.07
2022-12-26T23:05:53.174Z,206.00
2022-12-26T23:08:23.300Z,185.43
2022-12-26T23:10:53.492Z,198.27
2022-12-26T23:13:21.839Z,191.97
2022-12-26T23:15:56.383Z,165.10
2022-12-26T23:18:52.725Z,177.67
2022-12-26T23:21:43.161Z,190.30
2022-12-26T23:24:15.796Z,205.23
2022-12-26T23:26:46.011Z,219.83
2022-12-26T23:29:32.632Z,218.83
2022-12-26T23:32:00.926Z,221.20
2022-12-26T23:34:30.246Z,234.77
2022-12-26T23:36:58.193Z,233.30
2022-12-26T23:39:26.276Z,253.17
2022-12-26T23:41:54.473Z,271.20
2022-12-26T23:44:22.373Z,251.03
2022-12-26T23:46:50.357Z,337.93
2022-12-26T23:49:18.693Z,299.00
2022-12-26T23:51:47.980Z,299.30
2022-12-26T23:54:15.887Z,311.80
2022-12-26T23:56:43.737Z,285.80
2022-12-26T23:59:11.573Z,253.33
